Time;durP1;ratioP1;P1;durP2;ratioP2;P2;SDS_P1;SDS_P2;PMS_P1;PMS_P2;Temp;Humidity;BMP_temperature;BMP_pressure;BME280_temperature;BME280_humidity;BME280_pressure;Samples;Min_cycle;Max_cycle;Signal;HPM_P1;HPM_P2
2023/03/26 00:00:31;;;;;;;2.77;2.00;;;;;;;14.04;100.00;100943.09;2067960;28;20935;-61
2023/03/26 00:01:35;;;;;;;3.40;2.00;;;;;;;14.00;100.00;100946.00;2073146;28;20182;-62
2023/03/26 00:02:38;;;;;;;3.53;1.97;;;;;;;13.95;100.00;100946.56;2070702;28;20959;-62
2023/03/26 00:03:39;;;;;;;2.27;1.80;;;;;;;13.93;100.00;100946.22;2065184;28;20491;-62
2023/03/26 00:04:41;;;;;;;2.73;1.90;;;;;;;13.86;100.00;100960.38;2081167;28;20435;-61
2023/03/26 00:05:43;;;;;;;2.60;1.60;;;;;;;13.33;100.00;100879.75;2080362;28;20477;-62
2023/03/26 00:06:47;;;;;;;2.87;1.90;;;;;;;13.75;100.00;100948.03;2070137;28;20459;-61
2023/03/26 00:07:48;;;;;;;2.50;1.80;;;;;;;13.75;100.00;100950.81;2072456;28;20465;-61
2023/03/26 00:08:49;;;;;;;3.63;1.80;;;;;;;13.78;100.00;100950.69;2069047;28;20481;-61
2023/03/26 00:09:50;;;;;;;2.43;1.70;;;;;;;13.79;100.00;100949.44;2065621;28;20201;-62
2023/03/26 00:10:50;;;;;;;2.10;1.60;;;;;;;13.71;100.00;100950.13;2072955;28;20459;-62
2023/03/26 00:11:50;;;;;;;3.53;1.70;;;;;;;13.72;100.00;100951.69;2073154;28;20186;-61
2023/03/26 00:12:51;;;;;;;2.70;2.10;;;;;;;13.67;100.00;100957.81;2073085;28;20177;-61
2023/03/26 00:13:55;;;;;;;2.63;1.80;;;;;;;13.65;100.00;100943.56;2073227;28;20626;-61
2023/03/26 00:14:56;;;;;;;2.30;1.97;;;;;;;13.59;100.00;100951.72;2068016;28;20561;-61
2023/03/26 00:15:56;;;;;;;2.93;2.23;;;;;;;13.04;100.00;100859.56;2066618;28;20448;-61
2023/03/26 00:16:57;;;;;;;3.50;2.23;;;;;;;13.51;100.00;100942.00;2070362;28;20246;-62
2023/03/26 00:17:59;;;;;;;2.60;2.33;;;;;;;13.62;100.00;100955.59;2072785;28;20224;-61
2023/03/26 00:19:00;;;;;;;3.53;2.80;;;;;;;13.26;100.00;100899.41;2071605;28;20288;-61
2023/03/26 00:20:01;;;;;;;3.90;2.90;;;;;;;13.58;100.00;100952.91;2067243;28;20475;-61
2023/03/26 00:21:04;;;;;;;3.87;3.30;;;;;;;13.53;100.00;100944.34;2073074;28;20422;-62
2023/03/26 00:22:05;;;;;;;4.00;3.60;;;;;;;13.42;100.00;100950.22;2072433;28;20427;-62
2023/03/26 00:23:06;;;;;;;3.80;3.40;;;;;;;13.50;100.00;100948.00;2066972;28;21280;-61
2023/03/26 00:24:13;;;;;;;4.00;3.60;;;;;;;13.46;100.00;100950.91;2066276;28;20188;-62
2023/03/26 00:25:14;;;;;;;5.00;3.90;;;;;;;13.00;100.00;100881.13;2072628;28;20444;-61
2023/03/26 00:26:16;;;;;;;5.23;4.30;;;;;;;13.46;100.00;100950.09;2072220;28;20814;-62
2023/03/26 00:27:16;;;;;;;5.03;4.53;;;;;;;13.54;100.00;100965.38;2072977;28;20443;-61
2023/03/26 00:28:20;;;;;;;4.97;4.47;;;;;;;13.56;100.00;100954.56;2072442;28;20513;-62
2023/03/26 00:29:26;;;;;;;5.90;4.70;;;;;;;13.05;100.00;100875.81;2073163;28;20275;-61
2023/03/26 00:30:27;;;;;;;5.40;4.90;;;;;;;13.43;100.00;100940.63;2071491;28;20450;-61
2023/03/26 00:31:27;;;;;;;5.63;5.13;;;;;;;13.54;100.00;100965.38;2066067;28;20439;-61
2023/03/26 00:32:29;;;;;;;5.83;5.20;;;;;;;13.52;100.00;100959.50;2072713;28;20195;-61
2023/03/26 00:33:30;;;;;;;7.23;5.27;;;;;;;12.94;100.00;100894.00;2073298;28;20720;-61
2023/03/26 00:34:33;;;;;;;6.07;5.47;;;;;;;13.49;100.00;100963.16;2072866;28;20452;-61
2023/03/26 00:35:41;;;;;;;5.80;5.20;;;;;;;13.48;100.00;100962.38;2072698;28;20477;-61
2023/03/26 00:36:42;;;;;;;6.30;5.70;;;;;;;13.46;100.00;100961.25;2066929;28;20898;-61
2023/03/26 00:37:44;;;;;;;5.93;5.40;;;;;;;13.44;100.00;100964.50;2069852;28;20942;-61
2023/03/26 00:38:46;;;;;;;6.03;5.43;;;;;;;13.48;100.00;100962.38;2073147;28;20507;-61
2023/03/26 00:39:47;;;;;;;6.10;5.50;;;;;;;13.53;100.00;100961.06;2071866;28;20486;-61
2023/03/26 00:40:50;;;;;;;6.10;5.50;;;;;;;13.49;100.00;100949.22;2072925;28;20425;-61
2023/03/26 00:41:53;;;;;;;6.20;5.60;;;;;;;13.52;100.00;100963.03;2072844;28;20438;-62
2023/03/26 00:42:53;;;;;;;5.97;5.47;;;;;;;13.57;100.00;100968.06;2071485;28;20479;-61
2023/03/26 00:43:57;;;;;;;6.20;5.60;;;;;;;13.54;100.00;100966.19;2073174;28;20932;-61
2023/03/26 00:44:57;;;;;;;5.87;5.37;;;;;;;13.58;100.00;100968.84;2065115;28;20192;-62
2023/03/26 00:45:59;;;;;;;8.03;5.80;;;;;;;13.56;100.00;100966.50;2066517;28;20440;-61
2023/03/26 00:46:59;;;;;;;6.47;5.70;;;;;;;13.55;100.00;100962.16;2070590;28;20288;-61
2023/03/26 00:48:00;;;;;;;6.47;5.87;;;;;;;13.18;100.00;100892.53;2072409;28;20442;-61
2023/03/26 00:49:02;;;;;;;6.30;5.50;;;;;;;13.58;100.00;100957.72;2072760;28;20201;-62
2023/03/26 00:50:03;;;;;;;6.13;5.50;;;;;;;13.59;100.00;100959.28;2069778;28;20714;-62
2023/03/26 00:51:05;;;;;;;6.50;5.47;;;;;;;13.55;100.00;100947.44;2066309;28;20811;-61
2023/03/26 00:52:07;;;;;;;6.30;5.47;;;;;;;13.59;100.00;100953.69;2072463;28;20243;-61
2023/03/26 00:53:10;;;;;;;6.20;5.60;;;;;;;13.58;100.00;100952.16;2073059;28;20433;-61
2023/03/26 00:54:11;;;;;;;6.10;5.50;;;;;;;13.06;100.00;100884.94;2064467;28;20966;-61
2023/03/26 00:55:12;;;;;;;5.87;5.27;;;;;;;13.43;100.00;100954.56;2072084;28;20896;-61
2023/03/26 00:56:13;;;;;;;5.97;5.40;;;;;;;13.46;100.00;100961.25;2072724;28;20192;-61
2023/03/26 00:57:13;;;;;;;6.60;5.57;;;;;;;13.45;100.00;100970.81;2072316;28;20224;-61
2023/03/26 00:58:15;;;;;;;6.50;5.80;;;;;;;13.43;100.00;100967.72;2071105;28;20439;-61
2023/03/26 00:59:15;;;;;;;6.20;5.60;;;;;;;13.42;100.00;100972.50;2072510;28;20203;-62
2023/03/26 01:00:17;;;;;;;6.37;5.77;;;;;;;13.32;100.00;100967.25;2070600;28;21057;-61
2023/03/26 01:01:25;;;;;;;6.20;5.60;;;;;;;13.38;100.00;100979.41;2065416;28;20678;-61
2023/03/26 01:02:28;;;;;;;6.20;5.60;;;;;;;13.31;100.00;100974.81;2072296;28;20423;-61
2023/03/26 01:03:33;;;;;;;6.10;5.50;;;;;;;13.30;100.00;100980.81;2073240;28;20426;-62
2023/03/26 01:04:36;;;;;;;6.13;5.53;;;;;;;13.36;100.00;100981.81;2065116;28;20468;-62
2023/03/26 01:05:54;;;;;;;5.93;5.40;;;;;;;13.34;100.00;100978.72;2072071;28;20453;-62
2023/03/26 01:06:57;;;;;;;6.10;5.50;;;;;;;13.31;100.00;100985.94;2065471;28;20873;-63
2023/03/26 01:07:59;;;;;;;6.20;5.60;;;;;;;13.29;100.00;100984.84;2072096;28;20438;-62
2023/03/26 01:09:12;;;;;;;6.77;5.90;;;;;;;13.33;100.00;100991.09;2067000;28;20964;-61
2023/03/26 01:10:13;;;;;;;6.17;5.50;;;;;;;12.99;100.00;100933.22;2071892;28;20453;-62
2023/03/26 01:11:20;;;;;;;6.37;5.77;;;;;;;13.35;100.00;100989.41;2072662;28;20986;-61
2023/03/26 01:12:23;;;;;;;5.87;5.30;;;;;;;13.32;100.00;100979.16;2072356;28;20621;-62
2023/03/26 01:13:24;;;;;;;7.13;5.30;;;;;;;13.26;100.00;100969.00;2072630;28;20471;-62
2023/03/26 01:14:27;;;;;;;5.90;5.40;;;;;;;13.39;100.00;101001.25;2072479;28;20452;-61
2023/03/26 01:15:28;;;;;;;6.00;5.40;;;;;;;13.40;100.00;100990.88;2071431;28;20436;-62
2023/03/26 01:16:36;;;;;;;5.87;5.37;;;;;;;13.42;100.00;100996.78;2066727;28;20481;-62
2023/03/26 01:17:36;;;;;;;5.00;4.50;;;;;;;13.40;100.00;100990.88;2072137;28;20182;-61
2023/03/26 01:18:39;;;;;;;5.80;5.17;;;;;;;13.33;100.00;100991.09;2072701;28;20405;-62
2023/03/26 01:20:05;;;;;;;6.17;4.90;;;;;;;13.39;100.00;100995.66;2065732;28;20200;-61
2023/03/26 01:21:08;;;;;;;5.40;4.90;;;;;;;13.41;100.00;100990.44;2072599;28;20534;-61
2023/03/26 01:22:12;;;;;;;4.77;4.37;;;;;;;13.15;100.00;100962.97;2072325;28;20442;-61
2023/03/26 01:23:19;;;;;;;6.23;4.73;;;;;;;13.30;100.00;100984.41;2072087;28;20456;-61
2023/03/26 01:24:19;;;;;;;5.53;4.93;;;;;;;13.28;100.00;100980.50;2072480;28;20906;-61
2023/03/26 01:25:24;;;;;;;5.13;4.63;;;;;;;13.27;100.00;100978.94;2065750;28;20869;-61
2023/03/26 01:26:40;;;;;;;5.73;5.23;;;;;;;13.32;100.00;100981.94;2064786;28;20192;-62
2023/03/26 01:27:49;;;;;;;6.50;5.00;;;;;;;13.36;100.00;100990.19;2067615;28;20431;-62
2023/03/26 01:28:55;;;;;;;5.67;5.10;;;;;;;13.31;100.00;100980.38;2064813;28;20441;-61
2023/03/26 01:30:11;;;;;;;5.20;4.70;;;;;;;13.30;100.00;100981.63;2064445;28;20900;-61
2023/03/26 01:31:24;;;;;;;5.30;4.80;;;;;;;13.33;100.00;100977.16;2072714;28;20785;-61
2023/03/26 01:32:50;;;;;;;5.27;4.77;;;;;;;13.31;100.00;100976.81;2072626;28;20492;-62
2023/03/26 01:34:29;;;;;;;5.73;5.10;;;;;;;13.22;100.00;100982.25;2065090;28;20889;-62
2023/03/26 01:35:41;;;;;;;6.43;5.30;;;;;;;13.19;100.00;100974.78;2071684;28;20545;-62
2023/03/26 01:37:01;;;;;;;6.10;4.70;;;;;;;13.13;100.00;100980.13;2071794;28;20546;-61
2023/03/26 01:38:17;;;;;;;6.20;5.00;;;;;;;13.10;100.00;100994.91;2071297;28;20536;-61
2023/03/26 01:39:48;;;;;;;5.53;5.03;;;;;;;13.04;100.00;100979.97;2071798;28;20452;-61
2023/03/26 01:40:53;;;;;;;5.80;4.87;;;;;;;13.01;100.00;100978.06;2064185;28;20441;-61
2023/03/26 01:42:00;;;;;;;7.53;4.73;;;;;;;12.49;100.00;100908.00;2071442;28;20476;-61
2023/03/26 01:43:31;;;;;;;5.40;4.90;;;;;;;12.92;100.00;100982.69;2071810;28;20491;-61
2023/03/26 01:45:20;;;;;;;6.00;5.00;;;;;;;12.84;100.00;100973.75;2064832;28;20403;-61
2023/03/26 01:46:22;;;;;;;7.47;5.40;;;;;;;12.80;100.00;100986.97;2061867;28;20451;-61
2023/03/26 01:47:23;;;;;;;6.20;4.90;;;;;;;12.68;100.00;100984.94;2062331;28;20456;-61
2023/03/26 01:48:35;;;;;;;5.80;5.23;;;;;;;12.66;100.00;100995.69;2061768;28;20479;-62
2023/03/26 01:49:35;;;;;;;6.30;5.37;;;;;;;12.65;100.00;100991.34;2061927;28;20716;-62
2023/03/26 01:50:35;;;;;;;6.03;5.27;;;;;;;12.61;100.00;100987.88;2063409;28;20892;-61
2023/03/26 01:51:36;;;;;;;6.07;5.10;;;;;;;12.62;100.00;100991.44;2064692;28;20319;-61
2023/03/26 01:52:37;;;;;;;5.73;4.83;;;;;;;12.50;100.00;100967.16;2066909;28;20296;-62
2023/03/26 01:53:42;;;;;;;5.53;5.03;;;;;;;12.67;100.00;100997.28;2071374;28;20201;-61
2023/03/26 01:54:45;;;;;;;5.67;5.10;;;;;;;12.63;100.00;100985.47;2071667;28;20224;-61
2023/03/26 01:56:24;;;;;;;5.27;4.77;;;;;;;12.46;100.00;101000.56;2071178;28;20452;-61
2023/03/26 01:57:40;;;;;;;5.97;5.37;;;;;;;12.48;100.00;100992.59;2071473;28;20456;-61
2023/03/26 01:59:15;;;;;;;5.97;5.40;;;;;;;12.43;100.00;100997.91;2071381;28;20441;-61
2023/03/26 02:00:23;;;;;;;5.93;5.33;;;;;;;12.41;100.00;100992.75;2071609;28;21038;-61
2023/03/26 02:01:36;;;;;;;5.70;5.17;;;;;;;12.39;100.00;101013.88;2072044;28;20896;-61
2023/03/26 02:02:49;;;;;;;6.97;5.43;;;;;;;12.38;100.00;100993.66;2072304;28;21011;-62
2023/03/26 02:03:56;;;;;;;6.93;6.23;;;;;;;12.23;100.00;100997.22;2064169;28;20528;-61
2023/03/26 02:05:22;;;;;;;6.67;6.07;;;;;;;12.15;100.00;101001.41;2070852;28;20845;-61
2023/03/26 02:06:24;;;;;;;7.20;5.93;;;;;;;12.11;100.00;101007.03;2064495;28;20413;-61
2023/03/26 02:07:37;;;;;;;7.30;6.60;;;;;;;11.42;100.00;100901.16;2071749;28;20440;-62
2023/03/26 02:08:44;;;;;;;7.27;6.57;;;;;;;11.61;100.00;100940.00;2071870;28;20452;-61
2023/03/26 02:09:49;;;;;;;7.20;6.60;;;;;;;12.15;100.00;101006.94;2065365;28;20435;-62
2023/03/26 02:10:58;;;;;;;7.60;6.90;;;;;;;12.19;100.00;101008.41;2072290;28;20994;-61
2023/03/26 02:12:00;;;;;;;7.93;7.07;;;;;;;12.12;100.00;101007.81;2072471;28;20456;-61
2023/03/26 02:13:00;;;;;;;8.63;7.20;;;;;;;12.07;100.00;101011.88;2072452;28;20519;-62
2023/03/26 02:14:03;;;;;;;7.80;7.10;;;;;;;11.35;100.00;100906.84;2072183;28;20455;-62
2023/03/26 02:15:04;;;;;;;8.77;7.57;;;;;;;11.94;100.00;101005.44;2072466;28;20194;-61
2023/03/26 02:16:08;;;;;;;8.30;7.50;;;;;;;11.95;100.00;101004.22;2072186;28;20946;-61
2023/03/26 02:17:09;;;;;;;8.73;7.83;;;;;;;11.99;100.00;100998.59;2072423;28;20906;-62
2023/03/26 02:18:12;;;;;;;8.70;7.90;;;;;;;12.02;100.00;101000.50;2071518;28;20492;-61
2023/03/26 02:19:14;;;;;;;8.57;7.67;;;;;;;12.03;100.00;101000.06;2072677;28;20424;-62
2023/03/26 02:20:17;;;;;;;8.70;7.90;;;;;;;11.66;100.00;100947.81;2071754;28;20764;-62
2023/03/26 02:21:20;;;;;;;8.83;7.90;;;;;;;11.99;100.00;100999.38;2072663;28;20455;-61
2023/03/26 02:22:21;;;;;;;9.13;8.23;;;;;;;11.98;100.00;100994.25;2072265;28;20475;-62
2023/03/26 02:23:22;;;;;;;8.60;7.80;;;;;;;12.01;100.00;100993.38;2072227;28;20423;-62
2023/03/26 02:24:22;;;;;;;8.47;7.60;;;;;;;11.82;100.00;100970.03;2072099;28;20445;-61
2023/03/26 02:25:23;;;;;;;8.77;7.97;;;;;;;11.90;100.00;100998.41;2072462;28;20710;-61
2023/03/26 02:26:24;;;;;;;9.03;8.20;;;;;;;11.86;100.00;100989.38;2072263;28;20204;-62
2023/03/26 02:27:25;;;;;;;9.30;8.40;;;;;;;11.80;100.00;100982.78;2072636;28;20177;-61
2023/03/26 02:28:25;;;;;;;9.13;8.33;;;;;;;11.84;100.00;100995.34;2071820;28;20513;-62
2023/03/26 02:29:26;;;;;;;8.87;8.07;;;;;;;11.75;100.00;100997.97;2072456;28;20200;-61
2023/03/26 02:30:28;;;;;;;9.53;8.60;;;;;;;11.67;100.00;100999.31;2071830;28;20264;-61
2023/03/26 02:31:28;;;;;;;10.23;8.73;;;;;;;11.64;100.00;100996.63;2072338;28;20452;-61
2023/03/26 02:32:29;;;;;;;9.67;8.70;;;;;;;11.62;100.00;101002.63;2072115;28;20956;-61
2023/03/26 02:33:31;;;;;;;8.60;7.80;;;;;;;11.56;100.00;101009.84;2072266;28;20221;-61
2023/03/26 02:34:31;;;;;;;9.33;8.43;;;;;;;11.49;100.00;101003.69;2072271;28;20177;-61
2023/03/26 02:35:32;;;;;;;9.40;8.50;;;;;;;11.24;100.00;100962.59;2072120;28;20452;-62
2023/03/26 02:36:34;;;;;;;9.07;8.17;;;;;;;11.61;100.00;101011.38;2072238;28;20833;-62
2023/03/26 02:37:35;;;;;;;8.83;8.03;;;;;;;11.04;100.00;100919.44;2072260;28;20188;-62
2023/03/26 02:38:35;;;;;;;8.63;7.73;;;;;;;11.57;100.00;101019.75;2072012;28;20912;-61
2023/03/26 02:39:36;;;;;;;9.13;8.27;;;;;;;11.53;100.00;101021.03;2072085;28;20280;-61
2023/03/26 02:40:36;;;;;;;9.97;7.77;;;;;;;11.56;100.00;101025.72;2079373;28;20196;-62
2023/03/26 02:41:37;;;;;;;8.40;7.50;;;;;;;11.58;100.00;101026.84;2079723;28;20646;-62
2023/03/26 02:42:38;;;;;;;8.23;7.43;;;;;;;11.55;100.00;101026.94;2072224;28;20220;-61
2023/03/26 02:43:38;;;;;;;8.47;7.67;;;;;;;11.51;100.00;101029.78;2071946;28;20421;-61
2023/03/26 02:44:39;;;;;;;8.40;7.50;;;;;;;11.49;100.00;101025.88;2072324;28;20212;-61
2023/03/26 02:45:39;;;;;;;8.17;7.23;;;;;;;11.31;100.00;101009.59;2072212;28;20178;-61
2023/03/26 02:46:40;;;;;;;8.10;6.80;;;;;;;11.49;100.00;101035.00;2072309;28;20218;-61
2023/03/26 02:47:42;;;;;;;7.80;6.67;;;;;;;11.50;100.00;101033.78;2071813;28;20565;-62
2023/03/26 02:48:43;;;;;;;10.07;6.90;;;;;;;11.48;100.00;101043.75;2072250;28;20210;-61
2023/03/26 02:49:44;;;;;;;8.07;7.27;;;;;;;11.25;100.00;101008.53;2072168;28;20535;-62
2023/03/26 02:50:45;;;;;;;7.40;6.70;;;;;;;11.41;100.00;101035.56;2071891;28;20667;-61
2023/03/26 02:51:45;;;;;;;9.70;7.10;;;;;;;10.38;100.00;100886.31;2072136;28;20253;-61
2023/03/26 02:52:48;;;;;;;7.93;6.87;;;;;;;11.47;100.00;101044.97;2072177;28;20432;-62
2023/03/26 02:53:50;;;;;;;7.47;6.67;;;;;;;11.46;100.00;101046.16;2071771;28;20201;-61
2023/03/26 02:54:50;;;;;;;7.50;6.80;;;;;;;11.45;100.00;101053.72;2072686;28;20420;-61
2023/03/26 02:55:50;;;;;;;7.50;6.70;;;;;;;11.46;100.00;101054.47;2072132;28;20804;-62
2023/03/26 02:56:51;;;;;;;7.77;6.97;;;;;;;11.46;100.00;101054.47;2072545;28;20185;-61
2023/03/26 02:57:51;;;;;;;7.27;6.47;;;;;;;11.44;100.00;101059.69;2071696;28;20745;-61
2023/03/26 02:58:52;;;;;;;7.60;6.90;;;;;;;10.58;100.00;100942.53;2072206;28;20216;-61
2023/03/26 02:59:52;;;;;;;9.10;6.77;;;;;;;11.30;100.00;101038.56;2071573;28;20204;-61
2023/03/26 03:00:55;;;;;;;7.73;7.03;;;;;;;11.42;100.00;101062.88;2072344;28;20254;-62
2023/03/26 03:01:56;;;;;;;7.23;6.53;;;;;;;11.43;100.00;101060.91;2072128;28;20187;-62
2023/03/26 03:02:56;;;;;;;8.37;7.00;;;;;;;11.31;100.00;101039.31;2072122;28;20452;-61
2023/03/26 03:04:00;;;;;;;10.03;6.83;;;;;;;11.39;100.00;101052.66;2071901;28;20198;-61
2023/03/26 03:05:00;;;;;;;8.13;7.27;;;;;;;11.48;100.00;101061.16;2072136;28;20606;-62
2023/03/26 03:06:01;;;;;;;8.07;6.77;;;;;;;11.52;100.00;101061.88;2072350;28;20486;-61
2023/03/26 03:07:01;;;;;;;7.20;6.53;;;;;;;11.53;100.00;101060.66;2071983;28;20210;-61
2023/03/26 03:08:02;;;;;;;7.50;6.80;;;;;;;11.49;100.00;101073.84;2071752;28;20201;-62
2023/03/26 03:09:04;;;;;;;7.73;7.03;;;;;;;11.49;100.00;101067.50;2072108;28;20643;-62
2023/03/26 03:10:09;;;;;;;7.70;6.87;;;;;;;11.47;100.00;101073.47;2071677;28;20200;-61
2023/03/26 03:11:12;;;;;;;7.03;6.33;;;;;;;11.37;100.00;101076.50;2072117;28;20921;-61
2023/03/26 03:12:13;;;;;;;8.10;6.83;;;;;;;11.44;100.00;101065.22;2072018;28;20938;-61
2023/03/26 03:13:13;;;;;;;7.47;6.77;;;;;;;11.53;100.00;101077.31;2072012;28;20774;-61
2023/03/26 03:14:14;;;;;;;7.63;6.90;;;;;;;11.54;100.00;101078.13;2071922;28;20268;-61
2023/03/26 03:15:14;;;;;;;6.87;6.20;;;;;;;11.59;100.00;101074.88;2072540;28;20261;-61
2023/03/26 03:16:15;;;;;;;7.17;6.47;;;;;;;11.58;100.00;101074.03;2071806;28;20182;-61
2023/03/26 03:17:16;;;;;;;7.40;6.50;;;;;;;11.55;100.00;101071.34;2073377;28;20324;-61
2023/03/26 03:18:16;;;;;;;6.90;6.20;;;;;;;11.57;100.00;101080.81;2073054;28;20190;-61
2023/03/26 03:19:16;;;;;;;6.80;6.13;;;;;;;11.51;100.00;101073.41;2073946;28;20684;-62
2023/03/26 03:20:17;;;;;;;7.60;6.20;;;;;;;11.52;100.00;101078.53;2073026;28;20205;-61
2023/03/26 03:21:17;;;;;;;6.80;6.20;;;;;;;11.53;100.00;101082.09;2073765;28;20219;-61
2023/03/26 03:22:18;;;;;;;7.10;6.40;;;;;;;11.57;100.00;101078.03;2073412;28;20564;-61
2023/03/26 03:23:20;;;;;;;7.43;6.60;;;;;;;11.58;100.00;101074.03;2073887;28;20201;-62
2023/03/26 03:24:20;;;;;;;7.30;6.50;;;;;;;11.60;100.00;101073.66;2073681;28;20444;-61
2023/03/26 03:25:21;;;;;;;6.83;6.13;;;;;;;11.57;100.00;101086.38;2073891;28;20459;-61
2023/03/26 03:26:28;;;;;;;7.03;6.43;;;;;;;11.56;100.00;101070.91;2073644;28;20698;-62
2023/03/26 03:27:29;;;;;;;6.60;6.00;;;;;;;11.54;100.00;101076.09;2073914;28;20226;-62
2023/03/26 03:28:30;;;;;;;6.97;6.30;;;;;;;11.55;100.00;101074.13;2073153;28;20436;-62
2023/03/26 03:29:30;;;;;;;6.47;5.87;;;;;;;11.56;100.00;101073.69;2073458;28;20957;-61
2023/03/26 03:30:30;;;;;;;6.93;6.33;;;;;;;11.09;100.00;101002.94;2073197;28;20168;-62
2023/03/26 03:31:31;;;;;;;6.47;5.87;;;;;;;11.51;100.00;101068.66;2070473;28;20567;-61
2023/03/26 03:32:31;;;;;;;6.63;6.03;;;;;;;11.55;100.00;101065.78;2073909;28;20182;-61
2023/03/26 03:33:32;;;;;;;6.83;6.17;;;;;;;11.53;100.00;101062.69;2072895;28;20646;-62
2023/03/26 03:34:32;;;;;;;6.40;5.80;;;;;;;11.43;100.00;101063.69;2073599;28;20204;-62
2023/03/26 03:35:33;;;;;;;6.73;6.13;;;;;;;11.43;100.00;101069.22;2073108;28;20268;-61
2023/03/26 03:36:37;;;;;;;6.17;5.57;;;;;;;11.44;100.00;101070.78;2073464;28;20201;-61
2023/03/26 03:37:37;;;;;;;6.30;5.23;;;;;;;11.42;100.00;101065.66;2072960;28;20448;-62
2023/03/26 03:38:40;;;;;;;7.47;5.77;;;;;;;11.42;100.00;101070.44;2073269;28;20420;-61
2023/03/26 03:39:40;;;;;;;6.50;5.80;;;;;;;11.45;100.00;101077.91;2073101;28;20185;-61
2023/03/26 03:40:41;;;;;;;5.70;5.10;;;;;;;11.44;100.00;101077.13;2072967;28;20625;-61
2023/03/26 03:41:41;;;;;;;7.40;5.30;;;;;;;11.49;100.00;101076.63;2073652;28;20268;-62
2023/03/26 03:42:42;;;;;;;6.43;5.70;;;;;;;11.04;100.00;101008.19;2073327;28;20407;-61
2023/03/26 03:43:42;;;;;;;5.90;5.30;;;;;;;11.48;100.00;101086.16;2073138;28;20193;-61
2023/03/26 03:44:43;;;;;;;5.57;4.77;;;;;;;10.89;100.00;100993.81;2073518;28;20731;-61
2023/03/26 03:45:43;;;;;;;5.03;4.63;;;;;;;11.01;100.00;101015.34;2073112;28;20195;-62
2023/03/26 03:46:44;;;;;;;5.27;4.77;;;;;;;11.40;100.00;101090.28;2073481;28;20443;-62
2023/03/26 03:47:45;;;;;;;6.50;5.30;;;;;;;11.40;100.00;101086.72;2072520;28;20204;-61
2023/03/26 03:48:48;;;;;;;5.30;4.60;;;;;;;11.41;100.00;101100.16;2073186;28;20726;-61
2023/03/26 03:49:50;;;;;;;5.57;5.07;;;;;;;11.33;100.00;101095.19;2073156;28;20276;-62
2023/03/26 03:50:52;;;;;;;6.27;4.70;;;;;;;11.23;100.00;101085.84;2064964;28;20787;-62
2023/03/26 03:51:53;;;;;;;5.03;4.53;;;;;;;11.32;100.00;101086.06;2065265;28;20460;-61
2023/03/26 03:52:54;;;;;;;5.07;4.50;;;;;;;11.30;100.00;101088.50;2071310;28;20464;-62
2023/03/26 03:53:55;;;;;;;5.00;4.50;;;;;;;11.28;100.00;101093.69;2073064;28;20197;-61
2023/03/26 03:54:59;;;;;;;5.33;4.83;;;;;;;11.14;100.00;101065.44;2073285;28;20475;-61
2023/03/26 03:56:00;;;;;;;6.17;4.77;;;;;;;11.32;100.00;101097.16;2072896;28;20229;-61
2023/03/26 03:57:02;;;;;;;5.27;4.77;;;;;;;11.30;100.00;101088.50;2073258;28;20417;-61
2023/03/26 03:58:04;;;;;;;4.77;4.37;;;;;;;11.32;100.00;101093.63;2072786;28;20534;-62
2023/03/26 03:59:05;;;;;;;4.93;4.23;;;;;;;10.85;100.00;101033.88;2070545;28;20523;-61
2023/03/26 04:00:07;;;;;;;4.70;4.30;;;;;;;10.97;100.00;101050.69;2073167;28;20475;-62
2023/03/26 04:01:09;;;;;;;4.97;4.50;;;;;;;11.21;100.00;101087.47;2066619;28;20273;-61
2023/03/26 04:02:10;;;;;;;5.10;4.33;;;;;;;11.22;100.00;101087.06;2071800;28;20440;-62
2023/03/26 04:03:13;;;;;;;6.07;4.57;;;;;;;11.23;100.00;101088.63;2073319;28;20432;-62
2023/03/26 04:04:13;;;;;;;4.77;4.27;;;;;;;11.13;100.00;101072.19;2072871;28;20332;-61
2023/03/26 04:05:13;;;;;;;5.00;4.40;;;;;;;11.21;100.00;101088.28;2073343;28;20539;-61
2023/03/26 04:06:17;;;;;;;4.70;4.30;;;;;;;11.24;100.00;101078.31;2073010;28;20180;-61
2023/03/26 04:07:18;;;;;;;5.93;4.90;;;;;;;10.82;100.00;101013.34;2071479;28;20190;-61
2023/03/26 04:08:18;;;;;;;5.20;4.53;;;;;;;11.21;100.00;101079.94;2064858;28;20927;-62
2023/03/26 04:09:18;;;;;;;4.83;4.37;;;;;;;11.14;100.00;101080.09;2073469;28;20182;-61
2023/03/26 04:10:19;;;;;;;5.70;4.53;;;;;;;11.12;100.00;101068.63;2072683;28;20261;-61
2023/03/26 04:11:20;;;;;;;5.10;4.60;;;;;;;11.09;100.00;101077.81;2072450;28;20203;-62
2023/03/26 04:12:20;;;;;;;4.70;4.30;;;;;;;10.46;100.00;100995.00;2072384;28;20251;-62
2023/03/26 04:13:21;;;;;;;5.17;4.60;;;;;;;10.97;100.00;101081.19;2072707;28;20246;-61
2023/03/26 04:14:21;;;;;;;5.17;4.50;;;;;;;10.97;100.00;101083.97;2072086;28;20580;-61
2023/03/26 04:15:22;;;;;;;5.73;4.57;;;;;;;10.95;100.00;101088.38;2073682;28;20213;-62
2023/03/26 04:16:22;;;;;;;4.80;4.30;;;;;;;10.95;100.00;101088.38;2072752;28;20188;-62
2023/03/26 04:17:23;;;;;;;4.97;4.50;;;;;;;10.92;100.00;101089.22;2073064;28;20192;-62
2023/03/26 04:18:25;;;;;;;5.97;4.50;;;;;;;10.17;100.00;100980.88;2071785;28;20617;-61
2023/03/26 04:19:26;;;;;;;5.10;4.60;;;;;;;10.85;100.00;101094.88;2072614;28;20332;-62
2023/03/26 04:20:26;;;;;;;5.40;4.70;;;;;;;10.88;100.00;101086.53;2071675;28;20522;-61
2023/03/26 04:21:29;;;;;;;5.37;4.87;;;;;;;10.84;100.00;101085.00;2072727;28;20511;-62
2023/03/26 04:22:33;;;;;;;6.60;5.70;;;;;;;10.78;100.00;101081.94;2072897;28;20564;-62
2023/03/26 04:23:34;;;;;;;6.50;5.77;;;;;;;10.78;100.00;101092.25;2072255;28;20440;-61
2023/03/26 04:24:41;;;;;;;6.50;5.90;;;;;;;10.10;100.00;100982.97;2072672;28;20535;-61
2023/03/26 04:25:45;;;;;;;6.17;5.57;;;;;;;10.77;100.00;101093.44;2071926;28;20451;-61
2023/03/26 04:26:46;;;;;;;6.00;5.40;;;;;;;10.80;100.00;101090.63;2069173;28;20521;-61
2023/03/26 04:27:47;;;;;;;5.80;5.30;;;;;;;10.79;100.00;101085.47;2065727;28;20410;-62
2023/03/26 04:28:53;;;;;;;5.90;5.17;;;;;;;10.74;100.00;101080.41;2070888;28;20420;-62
2023/03/26 04:29:53;;;;;;;6.13;5.10;;;;;;;10.79;100.00;101094.59;2072819;28;20216;-61
2023/03/26 04:30:55;;;;;;;5.33;4.83;;;;;;;10.82;100.00;101085.41;2072800;28;20820;-61
2023/03/26 04:32:05;;;;;;;5.77;5.10;;;;;;;10.80;100.00;101093.38;2066344;28;20285;-62
2023/03/26 04:33:05;;;;;;;5.30;4.80;;;;;;;10.83;100.00;101098.09;2070385;28;20476;-61
2023/03/26 04:34:13;;;;;;;6.03;4.90;;;;;;;10.86;100.00;101094.47;2071915;28;20743;-62
2023/03/26 04:35:15;;;;;;;5.30;4.80;;;;;;;10.87;100.00;101095.25;2071896;28;20189;-61
2023/03/26 04:36:16;;;;;;;6.60;5.20;;;;;;;10.85;100.00;101090.13;2069789;28;20853;-61
2023/03/26 04:37:41;;;;;;;6.20;5.00;;;;;;;10.88;100.00;101089.28;2064902;28;20435;-61
2023/03/26 04:38:45;;;;;;;5.27;4.77;;;;;;;10.74;100.00;101072.09;2070680;28;20859;-62
2023/03/26 04:39:45;;;;;;;5.50;4.83;;;;;;;10.82;100.00;101087.44;2071576;28;21017;-61
2023/03/26 04:40:46;;;;;;;4.97;4.47;;;;;;;10.82;100.00;101090.97;2072034;28;21042;-61
2023/03/26 04:41:47;;;;;;;5.50;4.90;;;;;;;10.82;100.00;101095.75;2070858;28;20189;-62
2023/03/26 04:42:47;;;;;;;5.10;4.60;;;;;;;10.84;100.00;101098.88;2071951;28;20191;-61
2023/03/26 04:43:49;;;;;;;5.00;4.50;;;;;;;10.87;100.00;101095.25;2067969;28;20487;-61
2023/03/26 04:44:49;;;;;;;5.78;4.30;;;;;;;10.82;100.00;101087.44;2069361;28;20200;-62
2023/03/26 04:45:51;;;;;;;5.23;4.73;;;;;;;10.89;100.00;101096.41;2072435;28;20670;-61
2023/03/26 04:46:54;;;;;;;5.80;4.47;;;;;;;10.94;100.00;101103.44;2065098;28;20646;-62
2023/03/26 04:47:56;;;;;;;4.97;4.47;;;;;;;10.98;100.00;101102.19;2072179;28;20423;-62
2023/03/26 04:48:57;;;;;;;4.43;4.03;;;;;;;10.98;100.00;101102.19;2072340;28;20475;-61
2023/03/26 04:49:57;;;;;;;4.83;4.30;;;;;;;10.84;100.00;101065.59;2072377;28;20452;-61
2023/03/26 04:50:58;;;;;;;5.33;4.23;;;;;;;11.04;100.00;101097.72;2073273;28;20188;-61
2023/03/26 04:51:58;;;;;;;5.20;4.43;;;;;;;11.03;100.00;101104.47;2072903;28;20702;-61